Time;durP1;ratioP1;P1;durP2;ratioP2;P2;SDS_P1;SDS_P2;PMS_P1;PMS_P2;Temp;Humidity;BMP_temperature;BMP_pressure;BME280_temperature;BME280_humidity;BME280_pressure;Samples;Min_cycle;Max_cycle;Signal;HPM_P1;HPM_P2
2021/10/26 00:01:23;;;;;;;38.38;24.48;;;5.50;99.90;;;;;;5074293;28;20280;-74
2021/10/26 00:03:50;;;;;;;36.22;23.10;;;5.50;99.90;;;;;;5074094;28;20285;-74
2021/10/26 00:06:18;;;;;;;34.35;20.48;;;5.50;99.90;;;;;;5074376;28;20272;-75
2021/10/26 00:08:45;;;;;;;29.20;16.40;;;5.50;99.90;;;;;;5074308;28;20235;-74
2021/10/26 00:11:11;;;;;;;23.10;16.45;;;5.50;99.90;;;;;;5074236;28;20251;-75
2021/10/26 00:13:38;;;;;;;18.80;14.27;;;5.50;99.90;;;;;;5074102;28;20240;-74
2021/10/26 00:16:05;;;;;;;20.17;15.07;;;5.50;99.90;;;;;;5073932;28;20196;-75
2021/10/26 00:18:32;;;;;;;23.38;15.52;;;5.50;99.90;;;;;;5073968;28;20640;-74
2021/10/26 00:20:58;;;;;;;21.30;14.15;;;5.60;99.90;;;;;;5073963;28;20213;-75
2021/10/26 00:23:26;;;;;;;19.80;15.95;;;5.60;99.90;;;;;;5073809;28;20189;-74
2021/10/26 00:25:53;;;;;;;19.90;14.13;;;5.60;99.90;;;;;;5073802;28;20189;-77
2021/10/26 00:28:19;;;;;;;16.35;14.20;;;5.60;99.90;;;;;;5073935;28;20279;-75
2021/10/26 00:30:46;;;;;;;23.25;15.82;;;5.60;99.90;;;;;;5073739;28;20272;-76
2021/10/26 00:33:12;;;;;;;20.13;15.85;;;5.60;99.90;;;;;;5073581;28;20294;-76
2021/10/26 00:35:39;;;;;;;16.98;13.30;;;5.60;99.90;;;;;;5072528;28;20280;-75
2021/10/26 00:38:06;;;;;;;17.33;13.10;;;5.60;99.90;;;;;;5073611;28;20212;-75
2021/10/26 00:40:34;;;;;;;16.55;13.68;;;5.70;99.90;;;;;;5078947;28;20343;-75
2021/10/26 00:43:00;;;;;;;17.20;12.90;;;5.70;99.90;;;;;;5073367;28;20186;-75
2021/10/26 00:45:28;;;;;;;22.17;15.10;;;5.80;99.90;;;;;;5073440;28;20208;-75
2021/10/26 00:47:54;;;;;;;17.17;14.20;;;5.80;99.90;;;;;;5073476;28;20201;-76
2021/10/26 00:50:21;;;;;;;17.08;13.23;;;5.90;99.90;;;;;;5073335;28;20289;-76
2021/10/26 00:52:47;;;;;;;16.63;12.43;;;5.90;99.90;;;;;;5073485;28;20259;-76
2021/10/26 00:55:15;;;;;;;19.20;13.75;;;6.00;99.90;;;;;;5073255;28;20479;-76
2021/10/26 00:57:43;;;;;;;15.35;12.30;;;6.00;99.90;;;;;;5073167;28;20244;-75
2021/10/26 01:00:11;;;;;;;14.77;11.43;;;6.00;99.90;;;;;;5072925;28;20504;-75
2021/10/26 01:02:37;;;;;;;22.02;12.18;;;6.00;99.90;;;;;;5073298;28;20224;-75
2021/10/26 01:05:05;;;;;;;20.05;12.45;;;6.10;99.90;;;;;;5073129;28;20252;-75
2021/10/26 01:07:32;;;;;;;16.58;11.55;;;6.10;99.90;;;;;;5072996;28;20189;-75
2021/10/26 01:09:59;;;;;;;15.52;11.63;;;6.20;99.90;;;;;;5072816;28;20189;-76
2021/10/26 01:12:28;;;;;;;12.77;10.65;;;6.20;99.90;;;;;;5072993;28;20596;-77
2021/10/26 01:14:56;;;;;;;14.15;10.65;;;6.30;99.90;;;;;;5072926;28;20243;-76
2021/10/26 01:17:23;;;;;;;15.35;12.00;;;6.30;99.90;;;;;;5072847;28;20298;-76
2021/10/26 01:19:52;;;;;;;12.55;10.40;;;6.30;99.90;;;;;;5072746;28;20897;-75
2021/10/26 01:22:21;;;;;;;15.57;12.13;;;6.30;99.90;;;;;;5072858;28;20220;-75
2021/10/26 01:24:48;;;;;;;12.45;11.15;;;6.30;99.90;;;;;;5072899;28;20276;-75
2021/10/26 01:27:16;;;;;;;12.65;10.40;;;6.40;99.90;;;;;;5072557;28;20221;-76
2021/10/26 01:29:42;;;;;;;16.02;10.93;;;6.40;99.90;;;;;;5073028;28;20243;-76
2021/10/26 01:32:11;;;;;;;13.27;11.55;;;6.50;99.90;;;;;;5072646;28;20272;-76
2021/10/26 01:34:38;;;;;;;12.40;11.13;;;6.50;99.90;;;;;;5070971;28;20285;-76
2021/10/26 01:37:09;;;;;;;15.15;11.70;;;6.60;99.90;;;;;;5069397;28;20210;-76
2021/10/26 01:39:36;;;;;;;12.93;10.38;;;6.60;99.90;;;;;;5072308;28;20282;-76
2021/10/26 01:42:04;;;;;;;14.23;12.13;;;6.70;99.90;;;;;;5072641;28;20200;-75
2021/10/26 01:44:31;;;;;;;12.40;10.97;;;6.70;99.90;;;;;;5072625;28;20272;-75
2021/10/26 01:46:58;;;;;;;14.73;11.10;;;6.70;99.90;;;;;;5072593;28;20451;-75
2021/10/26 01:49:24;;;;;;;14.63;11.57;;;6.70;99.90;;;;;;5072597;28;20452;-75
2021/10/26 01:51:51;;;;;;;11.63;10.00;;;6.80;99.90;;;;;;5072602;28;20567;-75
2021/10/26 01:54:20;;;;;;;12.82;10.73;;;6.80;99.90;;;;;;5072357;28;20645;-75
2021/10/26 01:56:47;;;;;;;11.07;9.93;;;6.80;99.90;;;;;;5072181;28;20716;-75
2021/10/26 01:59:14;;;;;;;19.15;12.18;;;6.80;99.90;;;;;;5072526;28;20539;-75
2021/10/26 02:01:40;;;;;;;12.85;11.40;;;6.90;99.90;;;;;;5072702;28;20268;-75
2021/10/26 02:04:07;;;;;;;12.32;10.60;;;6.80;99.90;;;;;;5072559;28;20227;-75
2021/10/26 02:06:34;;;;;;;12.73;10.73;;;6.80;99.90;;;;;;5072073;28;20185;-75
2021/10/26 02:09:01;;;;;;;14.37;10.30;;;6.80;99.90;;;;;;5072264;28;21018;-76
2021/10/26 02:11:28;;;;;;;13.10;10.73;;;6.70;99.90;;;;;;5072248;28;20480;-76
2021/10/26 02:13:55;;;;;;;14.50;10.27;;;6.60;99.90;;;;;;5072464;28;20614;-76
2021/10/26 02:16:22;;;;;;;14.48;10.70;;;6.60;99.90;;;;;;5072133;28;20190;-76
2021/10/26 02:18:48;;;;;;;13.03;11.63;;;6.60;99.90;;;;;;5072106;28;20244;-76
2021/10/26 02:21:15;;;;;;;11.95;10.30;;;6.50;99.90;;;;;;5072072;28;20471;-76
2021/10/26 02:23:41;;;;;;;13.30;10.75;;;6.40;99.90;;;;;;5072453;28;20243;-76
2021/10/26 02:26:08;;;;;;;15.68;11.25;;;6.40;99.90;;;;;;5071932;28;20719;-75
2021/10/26 02:28:36;;;;;;;12.07;10.75;;;6.30;99.90;;;;;;5072182;28;20648;-76
2021/10/26 02:31:03;;;;;;;16.58;10.93;;;6.30;99.90;;;;;;5072208;28;20213;-75
2021/10/26 02:33:29;;;;;;;14.02;11.52;;;6.30;99.90;;;;;;5072120;28;20221;-75
2021/10/26 02:35:56;;;;;;;14.90;10.98;;;6.30;99.90;;;;;;5059800;28;20197;-76
2021/10/26 02:38:23;;;;;;;12.77;10.07;;;6.30;99.90;;;;;;5072194;28;20221;-75
2021/10/26 02:40:49;;;;;;;12.30;10.55;;;6.40;99.90;;;;;;5072054;28;20308;-76
2021/10/26 02:43:16;;;;;;;12.15;10.20;;;6.50;99.90;;;;;;5071817;28;20706;-75
2021/10/26 02:45:44;;;;;;;10.75;9.65;;;6.60;99.90;;;;;;5072906;28;20216;-75
2021/10/26 02:48:11;;;;;;;12.07;10.02;;;6.60;99.90;;;;;;5075768;28;20271;-75
2021/10/26 02:50:37;;;;;;;14.13;10.77;;;6.50;99.90;;;;;;5075677;28;20704;-75
2021/10/26 02:53:04;;;;;;;12.38;11.02;;;6.40;99.90;;;;;;5076028;28;20190;-75
2021/10/26 02:55:30;;;;;;;15.90;12.63;;;6.30;99.90;;;;;;5075562;28;20193;-76
2021/10/26 02:57:57;;;;;;;13.52;10.30;;;6.20;99.90;;;;;;5075598;28;20219;-77
2021/10/26 03:00:23;;;;;;;13.23;10.85;;;6.20;99.90;;;;;;5075510;28;20186;-77
2021/10/26 03:02:51;;;;;;;16.67;11.05;;;6.10;99.90;;;;;;5075461;28;20643;-78
2021/10/26 03:05:18;;;;;;;16.20;11.32;;;6.10;99.90;;;;;;5075614;28;20193;-76
2021/10/26 03:07:46;;;;;;;15.68;11.30;;;6.00;99.90;;;;;;5075436;28;20199;-77
2021/10/26 03:10:14;;;;;;;14.77;11.35;;;6.10;99.90;;;;;;5075506;28;20189;-75
2021/10/26 03:12:40;;;;;;;14.70;12.10;;;6.00;99.90;;;;;;5075101;28;20608;-75
2021/10/26 03:15:09;;;;;;;14.68;12.52;;;6.10;99.90;;;;;;5075253;28;20656;-75
2021/10/26 03:17:36;;;;;;;13.68;11.88;;;6.10;99.90;;;;;;5074797;28;20286;-77
2021/10/26 03:20:06;;;;;;;18.08;11.63;;;6.20;99.90;;;;;;5075345;28;20232;-77
2021/10/26 03:22:33;;;;;;;13.57;11.10;;;6.20;99.90;;;;;;5075022;28;20217;-76
2021/10/26 03:24:59;;;;;;;16.90;10.85;;;6.20;99.90;;;;;;5075111;28;20268;-76
2021/10/26 03:27:26;;;;;;;12.75;10.63;;;6.20;99.90;;;;;;5074802;28;20223;-75
2021/10/26 03:29:53;;;;;;;15.40;11.63;;;6.20;99.90;;;;;;5075161;28;20212;-75
2021/10/26 03:32:20;;;;;;;14.80;11.18;;;6.20;99.90;;;;;;5074832;28;20501;-76
2021/10/26 03:34:46;;;;;;;14.00;10.48;;;6.20;99.90;;;;;;5066004;28;20186;-76
2021/10/26 03:37:14;;;;;;;15.40;11.30;;;6.20;99.90;;;;;;5071506;28;20185;-76
2021/10/26 03:39:41;;;;;;;14.80;11.80;;;6.30;99.90;;;;;;5074735;28;20514;-75
2021/10/26 03:42:08;;;;;;;14.88;11.07;;;6.30;99.90;;;;;;5074817;28;20186;-75
2021/10/26 03:44:34;;;;;;;13.07;11.70;;;6.30;99.90;;;;;;5074609;28;20247;-75
2021/10/26 03:47:01;;;;;;;11.65;10.55;;;6.40;99.90;;;;;;5074837;28;20223;-75
2021/10/26 03:49:27;;;;;;;13.55;11.48;;;6.50;99.90;;;;;;5074541;28;20290;-75
2021/10/26 03:51:54;;;;;;;15.30;11.32;;;6.50;99.90;;;;;;5074492;28;20212;-75
2021/10/26 03:54:22;;;;;;;15.30;12.18;;;6.60;99.90;;;;;;5074547;28;20716;-75
2021/10/26 03:56:51;;;;;;;11.77;9.95;;;6.60;99.90;;;;;;5074398;28;20193;-75
2021/10/26 03:59:17;;;;;;;12.35;10.98;;;6.70;99.90;;;;;;5073856;28;20212;-75
2021/10/26 04:01:44;;;;;;;14.75;11.35;;;6.70;99.90;;;;;;5074721;28;20522;-75
2021/10/26 04:04:11;;;;;;;14.18;11.10;;;6.80;99.90;;;;;;5074602;28;20196;-75
2021/10/26 04:06:38;;;;;;;13.55;11.13;;;6.80;99.90;;;;;;5074477;28;20234;-75
2021/10/26 04:09:08;;;;;;;14.57;11.75;;;6.90;99.90;;;;;;5074359;28;20659;-75
2021/10/26 04:11:50;;;;;;;11.80;10.60;;;6.90;99.90;;;;;;5074276;28;20211;-74
2021/10/26 04:14:17;;;;;;;13.52;11.32;;;6.90;99.90;;;;;;5074263;28;20931;-75
2021/10/26 04:16:44;;;;;;;11.63;10.53;;;7.00;99.90;;;;;;5074239;28;20563;-75
2021/10/26 04:19:10;;;;;;;12.20;9.97;;;7.00;99.90;;;;;;5073953;28;20518;-75
2021/10/26 04:21:37;;;;;;;13.20;10.90;;;7.00;99.90;;;;;;5057736;28;20443;-75
2021/10/26 04:24:04;;;;;;;13.73;11.27;;;7.10;99.90;;;;;;5074038;28;20474;-75
2021/10/26 04:26:31;;;;;;;12.90;10.23;;;7.20;99.90;;;;;;5073811;28;20212;-75
2021/10/26 04:28:59;;;;;;;16.67;11.40;;;7.20;99.90;;;;;;5074038;28;20186;-75
2021/10/26 04:31:25;;;;;;;13.25;10.70;;;7.30;99.90;;;;;;5073887;28;20225;-81
2021/10/26 04:33:52;;;;;;;15.55;10.73;;;7.30;99.90;;;;;;5072309;28;20181;-75
2021/10/26 04:36:18;;;;;;;15.18;11.02;;;7.30;99.90;;;;;;5063055;28;20225;-75
2021/10/26 04:38:45;;;;;;;14.50;9.90;;;7.40;99.90;;;;;;5073481;28;20237;-74
2021/10/26 04:41:12;;;;;;;10.23;9.23;;;7.40;99.90;;;;;;5073264;28;20509;-75
2021/10/26 04:43:38;;;;;;;11.83;9.20;;;7.40;99.90;;;;;;5073364;28;20973;-75
2021/10/26 04:46:06;;;;;;;15.43;10.90;;;7.50;99.90;;;;;;5073604;28;20531;-75
2021/10/26 04:48:33;;;;;;;13.40;11.53;;;7.50;99.90;;;;;;5073299;28;20479;-75
2021/10/26 04:50:59;;;;;;;10.37;9.23;;;7.60;99.90;;;;;;5073456;28;21009;-75
2021/10/26 04:53:26;;;;;;;17.08;11.13;;;7.60;99.90;;;;;;5073007;28;20478;-75
2021/10/26 04:55:52;;;;;;;14.50;10.40;;;7.70;99.90;;;;;;5073580;28;20196;-75
2021/10/26 04:58:19;;;;;;;13.90;9.63;;;7.70;99.90;;;;;;5073274;28;20517;-75
2021/10/26 05:00:45;;;;;;;11.13;10.03;;;7.70;99.90;;;;;;5073346;28;20447;-75
2021/10/26 05:03:13;;;;;;;12.57;9.60;;;7.80;99.90;;;;;;5073215;28;20482;-75
2021/10/26 05:05:40;;;;;;;12.10;10.13;;;7.80;99.90;;;;;;5073099;28;20490;-75
2021/10/26 05:08:06;;;;;;;11.23;10.07;;;7.80;99.90;;;;;;5072951;28;20482;-75
2021/10/26 05:10:33;;;;;;;11.47;10.27;;;7.90;99.90;;;;;;5072291;28;20451;-75
2021/10/26 05:13:00;;;;;;;12.60;11.37;;;7.90;99.90;;;;;;5073090;28;20534;-75
2021/10/26 05:15:26;;;;;;;11.33;9.40;;;7.90;99.90;;;;;;5073021;28;20531;-75
2021/10/26 05:17:54;;;;;;;13.50;10.20;;;8.00;99.90;;;;;;5072879;28;20550;-75
2021/10/26 05:20:22;;;;;;;12.03;9.50;;;8.00;99.90;;;;;;5072691;28;20447;-76
2021/10/26 05:22:51;;;;;;;12.00;10.33;;;8.00;99.90;;;;;;5072961;28;20447;-76
2021/10/26 05:25:18;;;;;;;14.43;10.30;;;8.00;99.90;;;;;;5072900;28;20455;-75
2021/10/26 05:27:45;;;;;;;15.70;10.33;;;8.00;99.90;;;;;;5072822;28;20811;-75
2021/10/26 05:30:12;;;;;;;12.33;11.03;;;8.00;99.90;;;;;;5072837;28;20890;-75
2021/10/26 05:32:39;;;;;;;12.37;10.90;;;8.00;99.90;;;;;;5072690;28;20522;-75
2021/10/26 05:35:06;;;;;;;11.50;10.40;;;8.10;99.90;;;;;;5060725;28;20552;-75
2021/10/26 05:37:34;;;;;;;12.27;11.00;;;8.10;99.90;;;;;;5072117;28;20440;-75
2021/10/26 05:40:00;;;;;;;11.73;9.87;;;8.20;99.90;;;;;;5072401;28;20565;-75
2021/10/26 05:42:28;;;;;;;11.37;10.17;;;8.20;99.90;;;;;;5072480;28;20526;-75
2021/10/26 05:44:55;;;;;;;12.87;10.50;;;8.20;99.90;;;;;;5072564;28;20443;-76
2021/10/26 05:47:21;;;;;;;11.97;10.67;;;8.20;99.90;;;;;;5070509;28;20534;-75
2021/10/26 05:49:48;;;;;;;13.63;10.40;;;8.20;99.90;;;;;;5072293;28;20864;-76
2021/10/26 05:52:14;;;;;;;14.03;10.67;;;8.30;99.90;;;;;;5072544;28;20538;-75
2021/10/26 05:54:42;;;;;;;12.60;10.10;;;8.30;99.90;;;;;;5072484;28;20529;-75
2021/10/26 05:57:09;;;;;;;12.37;9.37;;;8.30;99.90;;;;;;5056082;28;21315;-75
2021/10/26 05:59:35;;;;;;;14.00;10.60;;;8.30;99.90;;;;;;5072226;28;20510;-75
2021/10/26 06:02:02;;;;;;;11.13;9.93;;;8.30;99.90;;;;;;5072241;28;20970;-76
2021/10/26 06:04:29;;;;;;;12.63;10.73;;;8.30;99.90;;;;;;5072131;28;20527;-75
2021/10/26 06:06:56;;;;;;;11.73;10.37;;;8.30;99.90;;;;;;5072398;28;20447;-75
2021/10/26 06:09:23;;;;;;;12.47;10.43;;;8.30;99.90;;;;;;5072321;28;20470;-75
2021/10/26 06:11:51;;;;;;;10.70;9.53;;;8.30;99.90;;;;;;5072353;28;20475;-75
2021/10/26 06:14:18;;;;;;;10.60;9.60;;;8.30;99.90;;;;;;5072347;28;20443;-77
2021/10/26 06:16:45;;;;;;;14.83;11.80;;;8.40;99.90;;;;;;5072153;28;20964;-76
2021/10/26 06:19:12;;;;;;;17.50;11.07;;;8.40;99.90;;;;;;5070703;28;20764;-75
2021/10/26 06:21:38;;;;;;;13.97;10.50;;;8.40;99.90;;;;;;5073449;28;20542;-75
2021/10/26 06:24:05;;;;;;;15.93;11.70;;;8.50;99.90;;;;;;5074810;28;20538;-75
2021/10/26 06:26:33;;;;;;;12.20;10.40;;;8.50;99.90;;;;;;5074979;28;20474;-75
2021/10/26 06:29:01;;;;;;;12.30;11.10;;;8.60;99.90;;;;;;5072089;28;20455;-75
2021/10/26 06:31:28;;;;;;;13.73;10.60;;;8.60;99.90;;;;;;5073938;28;20930;-75
2021/10/26 06:33:55;;;;;;;13.77;11.23;;;8.60;99.90;;;;;;5072804;28;20455;-75
2021/10/26 06:36:22;;;;;;;14.30;10.70;;;8.60;99.90;;;;;;5074332;28;20443;-79
2021/10/26 06:38:48;;;;;;;14.67;10.90;;;8.60;99.90;;;;;;5073731;28;20553;-75
2021/10/26 06:41:15;;;;;;;13.50;11.30;;;8.70;99.90;;;;;;5074402;28;20508;-75
2021/10/26 06:43:42;;;;;;;13.43;11.63;;;8.70;99.90;;;;;;5074389;28;20534;-75
2021/10/26 06:46:10;;;;;;;11.57;10.20;;;8.80;99.90;;;;;;5074198;28;20451;-75
2021/10/26 06:48:36;;;;;;;15.00;11.40;;;8.80;99.90;;;;;;5074384;28;20482;-76
2021/10/26 06:51:04;;;;;;;13.33;10.90;;;8.90;99.90;;;;;;5074105;28;20854;-76
2021/10/26 06:53:32;;;;;;;19.57;11.97;;;9.00;99.90;;;;;;5073664;28;20444;-76
2021/10/26 06:56:04;;;;;;;19.03;11.53;;;9.00;99.90;;;;;;5074158;28;20455;-76
2021/10/26 06:58:31;;;;;;;18.77;12.27;;;9.10;99.90;;;;;;5074612;28;20948;-75
2021/10/26 07:00:57;;;;;;;13.33;11.20;;;9.10;99.90;;;;;;5075337;28;20446;-76
2021/10/26 07:03:25;;;;;;;14.87;10.30;;;9.20;99.90;;;;;;5075269;28;20534;-76
2021/10/26 07:05:52;;;;;;;13.20;10.47;;;9.20;99.90;;;;;;5074231;28;20482;-76
2021/10/26 07:08:18;;;;;;;11.37;10.17;;;9.20;99.90;;;;;;5074437;28;20796;-76
2021/10/26 07:10:45;;;;;;;11.93;10.00;;;9.20;99.90;;;;;;5073806;28;20479;-76
2021/10/26 07:13:11;;;;;;;11.97;10.70;;;9.20;99.90;;;;;;5073998;28;20471;-76
2021/10/26 07:15:38;;;;;;;17.33;10.40;;;9.30;99.90;;;;;;5074173;28;20516;-75
2021/10/26 07:18:05;;;;;;;16.80;11.33;;;9.30;99.90;;;;;;5074041;28;20501;-75
2021/10/26 07:20:35;;;;;;;11.80;9.47;;;9.40;99.90;;;;;;5073565;28;20558;-75
2021/10/26 07:23:02;;;;;;;10.73;9.60;;;9.40;99.90;;;;;;5073228;28;20483;-76
2021/10/26 07:25:28;;;;;;;13.00;10.83;;;9.50;99.90;;;;;;5073714;28;20562;-75
2021/10/26 07:27:58;;;;;;;27.33;22.30;;;9.60;99.90;;;;;;5074310;28;20823;-76
2021/10/26 07:30:28;;;;;;;29.60;22.63;;;9.60;99.90;;;;;;5074767;28;20479;-76
2021/10/26 07:32:56;;;;;;;26.80;21.40;;;9.60;99.90;;;;;;5074142;28;20470;-76
2021/10/26 07:35:28;;;;;;;24.57;19.47;;;9.70;99.90;;;;;;5066561;28;20463;-75
2021/10/26 07:37:56;;;;;;;20.57;16.90;;;9.80;99.90;;;;;;5075013;28;20505;-75
2021/10/26 07:40:22;;;;;;;16.93;14.13;;;9.90;99.90;;;;;;5074471;28;21043;-75
2021/10/26 07:42:49;;;;;;;16.47;11.87;;;9.90;99.90;;;;;;5074859;28;21037;-75
2021/10/26 07:45:15;;;;;;;12.13;10.20;;;10.00;99.90;;;;;;5074840;28;20542;-75
2021/10/26 07:47:42;;;;;;;11.07;9.73;;;10.10;99.90;;;;;;5074988;28;20707;-75
2021/10/26 07:50:09;;;;;;;11.80;9.87;;;10.10;99.90;;;;;;5074416;28;20490;-76
2021/10/26 07:52:37;;;;;;;9.77;8.77;;;10.20;99.90;;;;;;5074672;28;20539;-75
2021/10/26 07:55:06;;;;;;;12.43;10.43;;;10.30;99.90;;;;;;5074759;28;20526;-76
2021/10/26 07:57:33;;;;;;;11.17;9.50;;;10.40;99.90;;;;;;5074702;28;20534;-75
2021/10/26 07:59:59;;;;;;;15.80;10.30;;;10.40;99.90;;;;;;5074571;28;20525;-76
2021/10/26 08:02:26;;;;;;;12.77;10.40;;;10.50;99.90;;;;;;5074576;28;20494;-75
2021/10/26 08:04:55;;;;;;;12.97;10.17;;;10.60;99.90;;;;;;5074354;28;20530;-76
2021/10/26 08:07:22;;;;;;;12.47;10.40;;;10.70;99.90;;;;;;5074215;28;20482;-76
2021/10/26 08:09:49;;;;;;;10.30;9.13;;;10.80;99.90;;;;;;5062318;28;21120;-77
2021/10/26 08:12:18;;;;;;;10.57;9.53;;;10.90;99.90;;;;;;5073054;28;20444;-76
2021/10/26 08:14:45;;;;;;;10.57;9.47;;;11.00;99.90;;;;;;5072840;28;20538;-76
2021/10/26 08:17:11;;;;;;;12.63;11.23;;;11.10;99.90;;;;;;5073002;28;20494;-76
2021/10/26 08:19:38;;;;;;;11.13;9.90;;;11.20;99.90;;;;;;5073162;28;20550;-76
2021/10/26 08:22:11;;;;;;;11.40;9.63;;;11.30;99.90;;;;;;5073626;28;20780;-79
2021/10/26 08:24:38;;;;;;;10.90;9.77;;;11.50;99.90;;;;;;5073771;28;20451;-76
2021/10/26 08:27:08;;;;;;;12.97;9.77;;;11.60;99.90;;;;;;5073564;28;20455;-78
2021/10/26 08:29:42;;;;;;;12.30;10.67;;;11.70;99.90;;;;;;5073854;28;20534;-78
2021/10/26 08:35:15;;;;;;;14.43;11.47;;;11.90;99.90;;;;;;5064979;28;21053;-76
2021/10/26 08:37:42;;;;;;;12.37;11.10;;;12.00;99.90;;;;;;5073431;28;20530;-76
2021/10/26 08:40:10;;;;;;;13.27;10.40;;;12.10;99.90;;;;;;5072903;28;20523;-76
2021/10/26 08:42:37;;;;;;;11.77;10.43;;;12.30;99.90;;;;;;5073012;28;20443;-78
2021/10/26 08:45:06;;;;;;;12.27;11.03;;;12.50;99.90;;;;;;5073052;28;20466;-76
2021/10/26 08:47:34;;;;;;;12.87;10.53;;;12.60;99.90;;;;;;5072324;28;20926;-76
2021/10/26 08:50:02;;;;;;;11.97;10.77;;;12.80;99.90;;;;;;5071672;28;20440;-76
2021/10/26 08:52:29;;;;;;;16.33;10.63;;;12.90;99.90;;;;;;5072184;28;20500;-76
2021/10/26 08:54:56;;;;;;;13.07;11.67;;;12.90;99.90;;;;;;5072294;28;20447;-77
2021/10/26 08:57:23;;;;;;;11.93;10.70;;;12.90;99.90;;;;;;5072761;28;20857;-76
2021/10/26 08:59:52;;;;;;;12.73;11.23;;;12.80;99.90;;;;;;5062282;28;20839;-77
2021/10/26 09:02:33;;;;;;;11.80;9.90;;;12.70;99.90;;;;;;5073009;28;20454;-77
2021/10/26 09:05:10;;;;;;;18.13;11.60;;;12.70;99.90;;;;;;5072823;28;20504;-77
2021/10/26 09:07:37;;;;;;;11.07;9.70;;;12.60;99.90;;;;;;5071879;28;20534;-77
2021/10/26 09:10:14;;;;;;;15.20;12.23;;;12.60;99.90;;;;;;5072401;28;20443;-77
2021/10/26 09:18:25;;;;;;;12.40;10.73;;;12.60;99.90;;;;;;5072753;28;21219;-76
2021/10/26 09:20:52;;;;;;;14.33;12.83;;;12.50;99.90;;;;;;5072324;28;20505;-77
2021/10/26 09:23:26;;;;;;;13.77;11.60;;;12.50;99.90;;;;;;5072763;28;20472;-77
2021/10/26 09:25:55;;;;;;;17.40;11.80;;;12.50;99.90;;;;;;5062089;28;20454;-76
2021/10/26 09:28:22;;;;;;;13.90;11.63;;;12.50;99.90;;;;;;5072372;28;20443;-77
2021/10/26 09:31:00;;;;;;;16.10;12.70;;;12.60;99.90;;;;;;5072388;28;20535;-76
2021/10/26 09:33:33;;;;;;;16.60;12.87;;;12.60;99.90;;;;;;5072517;28;20538;-77
2021/10/26 09:36:22;;;;;;;15.27;12.17;;;12.70;99.90;;;;;;5058280;28;20527;-77
2021/10/26 09:39:12;;;;;;;19.20;12.23;;;12.70;99.90;;;;;;5072191;28;20447;-77
2021/10/26 09:42:01;;;;;;;14.10;11.63;;;12.80;99.90;;;;;;5067399;28;20452;-77
2021/10/26 09:44:30;;;;;;;12.33;11.13;;;12.80;99.90;;;;;;5066865;28;20447;-77
2021/10/26 09:46:59;;;;;;;18.50;12.23;;;12.90;99.90;;;;;;5072038;28;20470;-76
2021/10/26 09:49:29;;;;;;;14.10;12.60;;;12.90;99.90;;;;;;5072011;28;20483;-77
2021/10/26 09:52:07;;;;;;;11.73;10.50;;;12.90;99.90;;;;;;5072213;28;20475;-77
2021/10/26 09:54:34;;;;;;;15.90;12.33;;;13.10;99.90;;;;;;5072258;28;20474;-77
2021/10/26 09:57:05;;;;;;;16.47;12.50;;;13.20;99.90;;;;;;5071505;28;20831;-76
2021/10/26 09:59:33;;;;;;;15.93;12.63;;;13.30;99.90;;;;;;5071919;28;20482;-77
2021/10/26 10:02:00;;;;;;;17.43;12.10;;;13.50;99.90;;;;;;5071878;28;20475;-77
2021/10/26 10:04:29;;;;;;;14.87;12.70;;;13.70;99.90;;;;;;5070349;28;20530;-76
2021/10/26 10:06:56;;;;;;;12.87;11.37;;;13.90;99.90;;;;;;5072061;28;20887;-76
2021/10/26 10:09:24;;;;;;;13.63;10.50;;;14.10;99.90;;;;;;5072130;28;20547;-76
2021/10/26 10:12:04;;;;;;;11.60;10.33;;;14.30;99.90;;;;;;5055711;28;20501;-81
2021/10/26 10:14:31;;;;;;;14.90;10.87;;;14.50;99.90;;;;;;5072281;28;20439;-77
2021/10/26 10:16:59;;;;;;;16.33;11.60;;;14.60;99.90;;;;;;5071904;28;20452;-77
2021/10/26 10:19:27;;;;;;;11.20;10.00;;;14.70;99.90;;;;;;5071691;28;20499;-77
2021/10/26 10:21:56;;;;;;;13.00;10.50;;;14.80;99.90;;;;;;5067692;28;20448;-77
2021/10/26 10:24:23;;;;;;;11.10;9.30;;;14.80;99.90;;;;;;5063127;28;20479;-76
2021/10/26 10:26:51;;;;;;;11.73;9.47;;;14.80;99.90;;;;;;5064812;28;20444;-77
2021/10/26 10:29:21;;;;;;;9.90;9.00;;;14.70;99.90;;;;;;5069936;28;21007;-77
2021/10/26 10:31:49;;;;;;;9.80;8.87;;;14.70;99.90;;;;;;5071643;28;20946;-77
2021/10/26 10:34:19;;;;;;;11.33;8.40;;;14.70;99.90;;;;;;5066997;28;20448;-77
2021/10/26 10:36:47;;;;;;;9.20;7.87;;;14.90;99.90;;;;;;5065416;28;20535;-77
2021/10/26 10:39:15;;;;;;;8.63;7.73;;;15.00;99.90;;;;;;5071299;28;20447;-77
2021/10/26 10:41:43;;;;;;;8.83;8.00;;;15.10;99.90;;;;;;5071840;28;20942;-77
2021/10/26 10:44:38;;;;;;;14.07;7.87;;;15.20;99.90;;;;;;5071967;28;20486;-77
2021/10/26 10:47:09;;;;;;;8.93;7.77;;;15.20;99.90;;;;;;5071871;28;20451;-77
2021/10/26 10:49:50;;;;;;;9.60;8.20;;;15.30;99.90;;;;;;5071635;28;20447;-77
2021/10/26 10:52:27;;;;;;;8.30;7.40;;;15.30;99.90;;;;;;5071820;28;20807;-77
2021/10/26 10:54:56;;;;;;;9.90;7.47;;;15.30;99.90;;;;;;5071907;28;20520;-77
2021/10/26 10:57:28;;;;;;;9.60;8.10;;;15.30;99.90;;;;;;5071760;28;21039;-77
2021/10/26 10:59:56;;;;;;;8.97;7.10;;;15.30;99.90;;;;;;5058383;28;20596;-77
2021/10/26 11:02:24;;;;;;;10.23;7.17;;;15.30;99.90;;;;;;5071420;28;20451;-77
2021/10/26 11:04:52;;;;;;;7.83;6.90;;;15.10;99.90;;;;;;5071782;28;20492;-77
2021/10/26 11:07:50;;;;;;;10.10;7.77;;;15.10;99.90;;;;;;5073228;28;20538;-77
2021/10/26 11:10:20;;;;;;;8.50;7.70;;;15.00;99.90;;;;;;5062555;28;20474;-77
2021/10/26 11:12:48;;;;;;;11.27;8.03;;;15.00;99.90;;;;;;5075037;28;20440;-77
2021/10/26 11:15:20;;;;;;;10.30;7.60;;;14.90;99.90;;;;;;5074998;28;20984;-77
2021/10/26 11:17:52;;;;;;;9.50;8.53;;;15.00;99.90;;;;;;5074865;28;20451;-77
2021/10/26 11:20:48;;;;;;;11.90;8.80;;;14.90;99.90;;;;;;5074681;28;20513;-77
2021/10/26 11:23:35;;;;;;;11.40;9.27;;;15.10;99.90;;;;;;5074556;28;20952;-78
2021/10/26 11:26:06;;;;;;;15.50;8.03;;;15.20;99.90;;;;;;5062691;28;20452;-77
2021/10/26 11:28:57;;;;;;;10.30;8.60;;;15.30;99.90;;;;;;5074801;28;20534;-77
2021/10/26 11:31:27;;;;;;;11.77;9.00;;;15.30;99.90;;;;;;5060035;28;20463;-77
2021/10/26 11:33:59;;;;;;;11.67;9.07;;;15.20;99.90;;;;;;5059370;28;20447;-77
2021/10/26 11:36:33;;;;;;;11.13;7.70;;;15.20;99.90;;;;;;5065487;28;20994;-77
2021/10/26 11:39:04;;;;;;;10.30;8.53;;;15.20;99.90;;;;;;5073937;28;20997;-77
2021/10/26 11:41:34;;;;;;;11.67;8.97;;;15.20;99.90;;;;;;5074413;28;20899;-77
2021/10/26 11:44:02;;;;;;;12.50;8.70;;;15.30;99.90;;;;;;5074282;28;20450;-77
2021/10/26 11:46:32;;;;;;;10.97;8.10;;;15.40;99.90;;;;;;5074628;28;20448;-77
2021/10/26 11:49:03;;;;;;;8.67;7.40;;;15.60;99.90;;;;;;5074450;28;21248;-77
2021/10/26 11:51:33;;;;;;;9.17;8.13;;;15.60;99.90;;;;;;5074299;28;20452;-77
2021/10/26 11:54:03;;;;;;;13.63;8.83;;;15.70;99.90;;;;;;5074429;28;20810;-77
2021/10/26 11:56:34;;;;;;;8.60;7.80;;;15.70;99.90;;;;;;5073929;28;20452;-77
2021/10/26 11:59:03;;;;;;;10.23;8.17;;;15.60;99.90;;;;;;5074231;28;20446;-77
2021/10/26 12:01:50;;;;;;;10.37;8.53;;;15.60;99.90;;;;;;5074184;28;20476;-77
2021/10/26 12:04:23;;;;;;;10.23;7.90;;;15.60;99.90;;;;;;5073982;28;21011;-77
2021/10/26 12:06:53;;;;;;;12.10;8.40;;;15.60;99.90;;;;;;5073128;28;20505;-77
2021/10/26 12:09:22;;;;;;;9.47;7.70;;;15.60;99.90;;;;;;5072643;28;20451;-77
2021/10/26 12:11:52;;;;;;;10.63;8.17;;;15.60;99.90;;;;;;5072833;28;20452;-77
2021/10/26 12:14:30;;;;;;;10.10;7.90;;;15.60;99.90;;;;;;5072515;28;20536;-77
2021/10/26 12:17:10;;;;;;;10.20;7.80;;;15.60;99.90;;;;;;5072527;28;20482;-77
2021/10/26 12:19:38;;;;;;;12.73;8.60;;;15.50;99.90;;;;;;5071242;28;20460;-78
2021/10/26 12:22:06;;;;;;;10.50;7.20;;;15.50;99.90;;;;;;5073008;28;20476;-77
2021/10/26 12:24:34;;;;;;;7.77;6.97;;;15.40;99.90;;;;;;5073370;28;20531;-77
2021/10/26 12:27:05;;;;;;;9.83;7.93;;;15.40;99.90;;;;;;5073623;28;20479;-77
2021/10/26 12:29:33;;;;;;;9.23;7.27;;;15.40;99.90;;;;;;5073420;28;20444;-77
2021/10/26 12:32:03;;;;;;;8.43;7.63;;;15.40;99.90;;;;;;5073481;28;20447;-77
2021/10/26 12:34:33;;;;;;;8.23;7.53;;;15.30;99.90;;;;;;5066937;28;20452;-77
2021/10/26 12:37:22;;;;;;;9.63;8.73;;;15.20;99.90;;;;;;5069316;28;20521;-77
2021/10/26 12:39:51;;;;;;;9.10;7.50;;;15.10;99.90;;;;;;5073123;28;20889;-77
2021/10/26 12:42:37;;;;;;;8.93;7.23;;;15.00;99.90;;;;;;5073046;28;20451;-77
2021/10/26 12:45:06;;;;;;;10.87;8.20;;;15.00;99.90;;;;;;5073394;28;20497;-77
2021/10/26 12:47:54;;;;;;;9.20;8.00;;;14.90;99.90;;;;;;5071065;28;20452;-77
2021/10/26 12:50:28;;;;;;;9.00;8.10;;;14.80;99.90;;;;;;5073037;28;20479;-78
2021/10/26 12:53:19;;;;;;;22.07;10.73;;;14.80;99.90;;;;;;5073212;28;20926;-77